»·PEaware :: N3891R KCRQ-L35

N3891R :: KCRQ-L35

FLIGHT INFORMATION

Flight Status: Arrived
Operator: Privately registered:
United States
More flights under this callsign
Pilot: Markus B. (22479)
Aircraft: BEECH AIRCRAFT BARON
(BE58)
More flights by this aircraft type
Origin: KCRQ McClellan-Palomar
United States
Destination: L35 Big Bear City
United States
More flights between these airports :: More routes between these airports
Route: +TANNR V186 PDZ V442 APLES V386 OKACO
File this flight plan on PilotEdge
Remarks:
Altitude:
(Current/Filed)
9,000ft
Speed:
(Current/Filed)
170kts
Departed: 09-Feb-20 09:18 AM
Arrived: 09-Feb-20 10:20 AM
Distance/Time
Traveled:
71nm/1:02
Distance/Time
To Go:
Arrived

Flight Plot

Page will automatically refresh every two minutes.

Flight plan parsing failed; only flown route is shown


Map Options




Map Legend


Flown Route
Filed Route
Departure Airport
Arrival Airport
Navaid (VOR, NDB)
Fix

Horizontal Profiles

Position Reports

Time Latitude Longitude Heading Altitude Ground
Speed
09-Feb-20 09:03 33.126417 -117.276677 47 335ft 0kts
09-Feb-20 09:04 33.126417 -117.276677 47 335ft 0kts
09-Feb-20 09:05 33.126417 -117.276677 47 335ft 0kts
09-Feb-20 09:06 33.126417 -117.276677 47 335ft 0kts
09-Feb-20 09:07 33.126417 -117.276677 47 335ft 0kts
09-Feb-20 09:08 33.126417 -117.276677 47 335ft 0kts
09-Feb-20 09:09 33.126417 -117.276677 47 335ft 0kts
09-Feb-20 09:10 33.126417 -117.276677 47 335ft 0kts
09-Feb-20 09:11 33.126417 -117.276677 47 335ft 0kts
09-Feb-20 09:12 33.126417 -117.276677 47 335ft 0kts
09-Feb-20 09:13 33.126417 -117.276677 47 335ft 0kts
09-Feb-20 09:14 33.126737 -117.276692 335 335ft 8kts
09-Feb-20 09:15 33.128628 -117.272661 80 335ft 12kts
09-Feb-20 09:16 33.128820 -117.272294 29 335ft 6kts
09-Feb-20 09:17 33.126339 -117.292606 261 865ft 117kts
09-Feb-20 09:18 33.120973 -117.335622 261 2270ft 122kts
09-Feb-20 09:19 33.116201 -117.374026 261 3821ft 115kts
09-Feb-20 09:20 33.110336 -117.421356 261 4123ft 170kts
09-Feb-20 09:21 33.103125 -117.479622 261 4058ft 184kts
09-Feb-20 09:22 33.131440 -117.501686 56 4058ft 180kts
09-Feb-20 09:23 33.149019 -117.445547 70 4047ft 184kts
09-Feb-20 09:24 33.165833 -117.387963 70 4057ft 183kts
09-Feb-20 09:25 33.182283 -117.331699 70 4467ft 161kts
09-Feb-20 09:26 33.194801 -117.288948 70 5969ft 125kts
09-Feb-20 09:27 33.205982 -117.250715 70 7148ft 120kts
09-Feb-20 09:28 33.235772 -117.241912 9 8198ft 117kts
09-Feb-20 09:29 33.267347 -117.232763 15 9176ft 117kts
09-Feb-20 09:30 33.302675 -117.220771 16 9588ft 144kts
09-Feb-20 09:31 33.342813 -117.207035 16 9629ft 167kts
09-Feb-20 09:32 33.392812 -117.190097 16 8923ft 186kts
09-Feb-20 09:33 33.440683 -117.173680 16 9011ft 174kts
09-Feb-20 09:34 33.487164 -117.171437 331 9034ft 173kts
09-Feb-20 09:35 33.527684 -117.203743 325 9015ft 175kts
09-Feb-20 09:36 33.567811 -117.237085 325 9016ft 175kts
09-Feb-20 09:37 33.607684 -117.270260 325 9050ft 175kts
09-Feb-20 09:38 33.647681 -117.303578 325 9053ft 175kts
09-Feb-20 09:39 33.687677 -117.336930 325 9052ft 175kts
09-Feb-20 09:40 33.727788 -117.370415 325 9052ft 175kts
09-Feb-20 09:41 33.767895 -117.403945 325 9054ft 176kts
09-Feb-20 09:42 33.808171 -117.437640 325 9053ft 177kts
09-Feb-20 09:43 33.848515 -117.471436 325 9052ft 177kts
09-Feb-20 09:44 33.889094 -117.505471 325 9052ft 177kts
09-Feb-20 09:45 33.933110 -117.517822 20 9064ft 176kts
09-Feb-20 09:46 33.978032 -117.493845 25 9046ft 177kts
09-Feb-20 09:47 34.022167 -117.467712 26 9051ft 177kts
09-Feb-20 09:48 34.065763 -117.441569 26 9322ft 162kts
09-Feb-20 09:49 34.102910 -117.419252 26 10147ft 141kts
09-Feb-20 09:50 34.137414 -117.398466 26 10859ft 137kts
09-Feb-20 09:51 34.171862 -117.377702 26 11264ft 153kts
09-Feb-20 09:52 34.214484 -117.351971 26 10904ft 179kts
09-Feb-20 09:53 34.257218 -117.326170 26 11070ft 171kts
09-Feb-20 09:54 34.300142 -117.300218 26 11066ft 173kts
09-Feb-20 09:55 34.343198 -117.274157 26 11065ft 173kts
09-Feb-20 09:56 34.386316 -117.248075 26 11062ft 173kts
09-Feb-20 09:57 34.429284 -117.221960 26 11065ft 173kts
09-Feb-20 09:58 34.472414 -117.195765 26 11065ft 173kts
09-Feb-20 09:59 34.515533 -117.169551 26 11065ft 173kts
09-Feb-20 10:00 34.545199 -117.130122 87 11052ft 169kts
09-Feb-20 10:01 34.541279 -117.073648 96 11059ft 168kts
09-Feb-20 10:02 34.535915 -117.017342 96 11064ft 168kts
09-Feb-20 10:03 34.530511 -116.960975 96 11066ft 168kts
09-Feb-20 10:04 34.525086 -116.904664 96 11065ft 168kts
09-Feb-20 10:06 34.519626 -116.848259 96 11065ft 168kts
09-Feb-20 10:07 34.514026 -116.793553 85 11285ft 144kts
09-Feb-20 10:08 34.509006 -116.738441 97 11055ft 164kts
09-Feb-20 10:09 34.496458 -116.687274 147 11073ft 165kts
09-Feb-20 10:10 34.454356 -116.664939 158 11022ft 159kts
09-Feb-20 10:11 34.414436 -116.645815 158 11029ft 150kts
09-Feb-20 10:12 34.374562 -116.634124 186 10799ft 156kts
09-Feb-20 10:13 34.331055 -116.643397 190 10137ft 158kts
09-Feb-20 10:14 34.292269 -116.652267 190 9152ft 116kts
09-Feb-20 10:15 34.266627 -116.666751 250 9302ft 118kts
09-Feb-20 10:16 34.264229 -116.708644 269 9256ft 126kts
09-Feb-20 10:17 34.264143 -116.750449 269 8464ft 118kts
09-Feb-20 10:18 34.264026 -116.788750 269 7824ft 111kts
09-Feb-20 10:19 34.263898 -116.826260 269 7185ft 112kts
09-Feb-20 10:20 34.263919 -116.856154 313 6754ft 24kts
09-Feb-20 10:21 34.264606 -116.857341 3 6754ft 0kts

Navigation Log

Ident Type
Flight plan parsing failed, navigation log unavailable